sensor_id;sensor_type;location;lat;lon;timestamp;temperature;humidity
997;DHT22;487;50.126;8.698;2023-08-31T00:00:00;15.60;99.90
997;DHT22;487;50.126;8.698;2023-08-31T04:02:54;14.50;99.90
997;DHT22;487;50.126;8.698;2023-08-31T04:05:24;14.60;99.90
997;DHT22;487;50.126;8.698;2023-08-31T04:07:51;14.40;99.90
997;DHT22;487;50.126;8.698;2023-08-31T04:10:19;14.30;99.90
997;DHT22;487;50.126;8.698;2023-08-31T04:12:47;14.40;99.90
997;DHT22;487;50.126;8.698;2023-08-31T04:17:44;14.60;99.90
997;DHT22;487;50.126;8.698;2023-08-31T04:20:13;14.60;99.90
997;DHT22;487;50.126;8.698;2023-08-31T04:22:41;14.50;99.90
997;DHT22;487;50.126;8.698;2023-08-31T04:25:12;14.40;99.90
997;DHT22;487;50.126;8.698;2023-08-31T04:27:40;14.40;99.90
997;DHT22;487;50.126;8.698;2023-08-31T04:30:10;14.40;99.90
997;DHT22;487;50.126;8.698;2023-08-31T04:32:38;14.30;99.90
997;DHT22;487;50.126;8.698;2023-08-31T04:35:07;14.20;99.90
997;DHT22;487;50.126;8.698;2023-08-31T04:37:39;14.40;99.90
997;DHT22;487;50.126;8.698;2023-08-31T04:40:08;14.40;99.90
997;DHT22;487;50.126;8.698;2023-08-31T04:42:39;14.50;99.90
997;DHT22;487;50.126;8.698;2023-08-31T04:45:13;14.50;99.90
997;DHT22;487;50.126;8.698;2023-08-31T04:47:41;14.50;99.90
997;DHT22;487;50.126;8.698;2023-08-31T04:52:39;14.60;99.90
997;DHT22;487;50.126;8.698;2023-08-31T04:55:07;14.50;99.90
997;DHT22;487;50.126;8.698;2023-08-31T04:57:39;14.40;99.90
997;DHT22;487;50.126;8.698;2023-08-31T05:00:11;14.40;99.90
997;DHT22;487;50.126;8.698;2023-08-31T05:02:39;14.30;99.90
997;DHT22;487;50.126;8.698;2023-08-31T05:05:08;14.40;99.90
997;DHT22;487;50.126;8.698;2023-08-31T05:07:36;14.30;99.90
997;DHT22;487;50.126;8.698;2023-08-31T05:10:08;14.20;99.90
997;DHT22;487;50.126;8.698;2023-08-31T05:12:36;14.20;99.90
997;DHT22;487;50.126;8.698;2023-08-31T05:15:07;14.30;99.90
997;DHT22;487;50.126;8.698;2023-08-31T05:17:38;14.30;99.90
997;DHT22;487;50.126;8.698;2023-08-31T05:20:08;14.20;99.90
997;DHT22;487;50.126;8.698;2023-08-31T05:22:36;14.10;99.90
997;DHT22;487;50.126;8.698;2023-08-31T05:25:06;14.30;99.90
997;DHT22;487;50.126;8.698;2023-08-31T05:27:34;14.30;99.90
997;DHT22;487;50.126;8.698;2023-08-31T05:30:03;14.30;99.90
997;DHT22;487;50.126;8.698;2023-08-31T05:32:31;14.30;99.90
997;DHT22;487;50.126;8.698;2023-08-31T05:34:59;14.20;99.90
997;DHT22;487;50.126;8.698;2023-08-31T05:37:32;14.20;99.90
997;DHT22;487;50.126;8.698;2023-08-31T05:40:02;14.30;99.90
997;DHT22;487;50.126;8.698;2023-08-31T05:42:38;14.20;99.90
997;DHT22;487;50.126;8.698;2023-08-31T05:45:09;14.20;99.90
997;DHT22;487;50.126;8.698;2023-08-31T05:47:40;14.10;99.90
997;DHT22;487;50.126;8.698;2023-08-31T05:50:08;14.20;99.90
997;DHT22;487;50.126;8.698;2023-08-31T05:52:37;14.10;99.90
997;DHT22;487;50.126;8.698;2023-08-31T05:55:05;14.10;99.90
997;DHT22;487;50.126;8.698;2023-08-31T05:57:35;14.00;99.90
997;DHT22;487;50.126;8.698;2023-08-31T06:10:48;14.20;99.90
997;DHT22;487;50.126;8.698;2023-08-31T06:13:16;14.30;99.90
997;DHT22;487;50.126;8.698;2023-08-31T06:15:46;14.40;99.90
997;DHT22;487;50.126;8.698;2023-08-31T06:18:14;14.30;99.90
997;DHT22;487;50.126;8.698;2023-08-31T06:20:41;14.20;99.90
997;DHT22;487;50.126;8.698;2023-08-31T06:23:10;14.30;99.90
997;DHT22;487;50.126;8.698;2023-08-31T06:25:39;14.40;99.90
997;DHT22;487;50.126;8.698;2023-08-31T06:28:07;14.40;99.90
997;DHT22;487;50.126;8.698;2023-08-31T06:30:37;14.40;99.90
997;DHT22;487;50.126;8.698;2023-08-31T06:33:08;14.20;99.90
997;DHT22;487;50.126;8.698;2023-08-31T06:35:37;14.20;99.90
997;DHT22;487;50.126;8.698;2023-08-31T06:38:05;14.20;99.90
997;DHT22;487;50.126;8.698;2023-08-31T06:40:33;14.30;99.90
997;DHT22;487;50.126;8.698;2023-08-31T06:43:01;14.30;99.90
997;DHT22;487;50.126;8.698;2023-08-31T06:45:30;14.40;99.90
997;DHT22;487;50.126;8.698;2023-08-31T06:47:58;14.50;99.90
997;DHT22;487;50.126;8.698;2023-08-31T06:50:27;14.40;99.90
997;DHT22;487;50.126;8.698;2023-08-31T06:52:55;14.40;99.90
997;DHT22;487;50.126;8.698;2023-08-31T06:55:24;14.50;99.90
997;DHT22;487;50.126;8.698;2023-08-31T06:57:52;14.50;99.90
997;DHT22;487;50.126;8.698;2023-08-31T07:00:22;14.60;99.90
997;DHT22;487;50.126;8.698;2023-08-31T07:02:50;14.70;99.90
997;DHT22;487;50.126;8.698;2023-08-31T07:05:19;14.60;99.90
997;DHT22;487;50.126;8.698;2023-08-31T07:07:54;14.70;99.90
997;DHT22;487;50.126;8.698;2023-08-31T07:10:22;14.80;99.90
997;DHT22;487;50.126;8.698;2023-08-31T07:12:50;14.70;99.90
997;DHT22;487;50.126;8.698;2023-08-31T07:15:18;14.70;99.90
997;DHT22;487;50.126;8.698;2023-08-31T07:17:46;14.80;99.90
997;DHT22;487;50.126;8.698;2023-08-31T07:20:15;14.90;99.90
997;DHT22;487;50.126;8.698;2023-08-31T07:22:43;14.90;99.90
997;DHT22;487;50.126;8.698;2023-08-31T07:25:12;15.00;99.90
997;DHT22;487;50.126;8.698;2023-08-31T07:27:40;15.00;99.90
997;DHT22;487;50.126;8.698;2023-08-31T07:30:11;15.00;99.90
997;DHT22;487;50.126;8.698;2023-08-31T07:32:39;15.00;99.90
997;DHT22;487;50.126;8.698;2023-08-31T07:35:07;15.00;99.90
997;DHT22;487;50.126;8.698;2023-08-31T07:37:36;14.90;99.90
997;DHT22;487;50.126;8.698;2023-08-31T07:40:16;15.00;99.90
997;DHT22;487;50.126;8.698;2023-08-31T07:42:47;15.00;99.90
997;DHT22;487;50.126;8.698;2023-08-31T07:45:15;15.00;99.90
997;DHT22;487;50.126;8.698;2023-08-31T07:47:43;15.10;99.90
997;DHT22;487;50.126;8.698;2023-08-31T07:50:11;15.10;99.90
997;DHT22;487;50.126;8.698;2023-08-31T07:52:40;15.10;99.90
997;DHT22;487;50.126;8.698;2023-08-31T07:55:09;15.10;99.90
997;DHT22;487;50.126;8.698;2023-08-31T07:57:38;15.20;99.90
997;DHT22;487;50.126;8.698;2023-08-31T08:00:12;17.00;99.90
997;DHT22;487;50.126;8.698;2023-08-31T08:02:41;15.20;99.90
997;DHT22;487;50.126;8.698;2023-08-31T08:05:09;15.30;99.90
997;DHT22;487;50.126;8.698;2023-08-31T08:07:37;15.40;99.90
997;DHT22;487;50.126;8.698;2023-08-31T08:12:39;15.70;99.90
997;DHT22;487;50.126;8.698;2023-08-31T08:15:09;15.80;99.90
997;DHT22;487;50.126;8.698;2023-08-31T08:17:37;15.80;99.90
997;DHT22;487;50.126;8.698;2023-08-31T08:20:07;15.90;99.90
997;DHT22;487;50.126;8.698;2023-08-31T08:22:36;16.00;99.90
997;DHT22;487;50.126;8.698;2023-08-31T08:25:04;16.20;99.90
997;DHT22;487;50.126;8.698;2023-08-31T08:27:33;16.20;99.90
997;DHT22;487;50.126;8.698;2023-08-31T08:30:06;16.40;99.90
997;DHT22;487;50.126;8.698;2023-08-31T08:35:03;16.50;99.90
997;DHT22;487;50.126;8.698;2023-08-31T08:37:31;16.50;99.90
997;DHT22;487;50.126;8.698;2023-08-31T08:40:00;16.50;99.90
997;DHT22;487;50.126;8.698;2023-08-31T08:42:30;16.50;99.90
997;DHT22;487;50.126;8.698;2023-08-31T08:44:58;16.50;99.90
997;DHT22;487;50.126;8.698;2023-08-31T08:47:28;16.40;99.90
997;DHT22;487;50.126;8.698;2023-08-31T08:49:58;16.40;99.90
997;DHT22;487;50.126;8.698;2023-08-31T08:52:27;16.10;99.90
997;DHT22;487;50.126;8.698;2023-08-31T08:54:56;16.10;99.90
997;DHT22;487;50.126;8.698;2023-08-31T08:57:25;16.30;99.90
997;DHT22;487;50.126;8.698;2023-08-31T08:59:53;16.40;99.90
997;DHT22;487;50.126;8.698;2023-08-31T09:02:21;18.30;99.90
997;DHT22;487;50.126;8.698;2023-08-31T09:04:51;16.40;99.90
997;DHT22;487;50.126;8.698;2023-08-31T09:07:21;15.70;99.90
997;DHT22;487;50.126;8.698;2023-08-31T09:09:50;16.40;99.90
997;DHT22;487;50.126;8.698;2023-08-31T09:12:20;16.40;99.90
997;DHT22;487;50.126;8.698;2023-08-31T09:14:58;16.70;99.90
997;DHT22;487;50.126;8.698;2023-08-31T09:17:28;16.70;99.90
997;DHT22;487;50.126;8.698;2023-08-31T09:20:07;16.60;99.90
997;DHT22;487;50.126;8.698;2023-08-31T09:22:42;16.60;99.90
997;DHT22;487;50.126;8.698;2023-08-31T09:25:10;16.60;99.90
997;DHT22;487;50.126;8.698;2023-08-31T09:27:38;16.70;99.90
997;DHT22;487;50.126;8.698;2023-08-31T09:30:07;16.70;99.90
997;DHT22;487;50.126;8.698;2023-08-31T09:32:35;16.60;99.90
997;DHT22;487;50.126;8.698;2023-08-31T09:35:07;16.50;99.90
997;DHT22;487;50.126;8.698;2023-08-31T09:37:55;16.60;99.90
997;DHT22;487;50.126;8.698;2023-08-31T09:40:23;16.60;99.90
997;DHT22;487;50.126;8.698;2023-08-31T09:42:51;16.60;99.90
997;DHT22;487;50.126;8.698;2023-08-31T09:45:25;16.70;99.90
997;DHT22;487;50.126;8.698;2023-08-31T09:48:13;16.90;99.90
997;DHT22;487;50.126;8.698;2023-08-31T09:50:44;16.90;99.90
997;DHT22;487;50.126;8.698;2023-08-31T09:53:16;16.90;99.90
997;DHT22;487;50.126;8.698;2023-08-31T09:55:47;17.10;99.90
997;DHT22;487;50.126;8.698;2023-08-31T09:58:18;16.90;99.90
997;DHT22;487;50.126;8.698;2023-08-31T10:00:49;16.90;99.90
997;DHT22;487;50.126;8.698;2023-08-31T10:03:17;17.00;99.90
997;DHT22;487;50.126;8.698;2023-08-31T10:05:48;17.00;99.90
997;DHT22;487;50.126;8.698;2023-08-31T10:08:17;17.10;99.90
997;DHT22;487;50.126;8.698;2023-08-31T10:10:46;17.10;99.90
997;DHT22;487;50.126;8.698;2023-08-31T10:13:14;17.10;99.90
997;DHT22;487;50.126;8.698;2023-08-31T10:15:43;17.20;99.90
997;DHT22;487;50.126;8.698;2023-08-31T10:18:11;17.30;99.90
997;DHT22;487;50.126;8.698;2023-08-31T10:20:42;17.40;99.90
997;DHT22;487;50.126;8.698;2023-08-31T10:23:13;17.40;99.90
997;DHT22;487;50.126;8.698;2023-08-31T10:26:01;17.50;99.90
997;DHT22;487;50.126;8.698;2023-08-31T10:28:39;17.70;99.90
997;DHT22;487;50.126;8.698;2023-08-31T10:31:09;17.70;99.90
997;DHT22;487;50.126;8.698;2023-08-31T10:33:40;17.70;99.90
997;DHT22;487;50.126;8.698;2023-08-31T10:36:11;17.70;99.90
997;DHT22;487;50.126;8.698;2023-08-31T10:38:42;17.70;99.90
997;DHT22;487;50.126;8.698;2023-08-31T10:41:19;17.70;99.90
997;DHT22;487;50.126;8.698;2023-08-31T10:43:50;17.90;99.90
997;DHT22;487;50.126;8.698;2023-08-31T10:46:25;18.10;99.90
997;DHT22;487;50.126;8.698;2023-08-31T10:48:55;18.20;99.90
997;DHT22;487;50.126;8.698;2023-08-31T10:51:28;18.10;99.90
997;DHT22;487;50.126;8.698;2023-08-31T10:54:09;18.10;99.90
997;DHT22;487;50.126;8.698;2023-08-31T10:57:04;18.10;99.90
997;DHT22;487;50.126;8.698;2023-08-31T10:59:44;18.10;99.90
997;DHT22;487;50.126;8.698;2023-08-31T11:02:31;18.10;99.90
997;DHT22;487;50.126;8.698;2023-08-31T11:05:11;18.40;99.90
997;DHT22;487;50.126;8.698;2023-08-31T11:07:42;18.40;99.90
997;DHT22;487;50.126;8.698;2023-08-31T11:10:14;18.50;99.90
997;DHT22;487;50.126;8.698;2023-08-31T11:12:44;18.80;99.90
997;DHT22;487;50.126;8.698;2023-08-31T11:15:12;18.90;99.90
997;DHT22;487;50.126;8.698;2023-08-31T11:17:41;19.00;99.90
997;DHT22;487;50.126;8.698;2023-08-31T11:20:13;19.00;99.90
997;DHT22;487;50.126;8.698;2023-08-31T11:22:44;19.00;96.80
997;DHT22;487;50.126;8.698;2023-08-31T11:25:15;18.90;92.40
997;DHT22;487;50.126;8.698;2023-08-31T11:27:53;18.60;91.70
997;DHT22;487;50.126;8.698;2023-08-31T11:30:21;18.60;93.60
997;DHT22;487;50.126;8.698;2023-08-31T11:32:51;18.60;94.70
997;DHT22;487;50.126;8.698;2023-08-31T11:35:20;18.60;93.20
997;DHT22;487;50.126;8.698;2023-08-31T11:37:50;18.60;94.20
997;DHT22;487;50.126;8.698;2023-08-31T11:40:20;18.60;92.90
997;DHT22;487;50.126;8.698;2023-08-31T11:42:48;18.60;98.10
997;DHT22;487;50.126;8.698;2023-08-31T11:45:17;18.60;90.60
997;DHT22;487;50.126;8.698;2023-08-31T11:47:47;18.50;95.90
997;DHT22;487;50.126;8.698;2023-08-31T11:50:16;18.70;97.10
997;DHT22;487;50.126;8.698;2023-08-31T11:52:44;19.00;94.00
997;DHT22;487;50.126;8.698;2023-08-31T11:55:14;19.20;90.70
997;DHT22;487;50.126;8.698;2023-08-31T11:57:49;18.90;88.90
997;DHT22;487;50.126;8.698;2023-08-31T12:00:18;18.90;95.10
997;DHT22;487;50.126;8.698;2023-08-31T12:02:55;23.50;92.40
997;DHT22;487;50.126;8.698;2023-08-31T12:05:23;19.10;79.60
997;DHT22;487;50.126;8.698;2023-08-31T12:07:53;19.20;82.60
997;DHT22;487;50.126;8.698;2023-08-31T12:10:24;19.20;92.00
997;DHT22;487;50.126;8.698;2023-08-31T12:15:33;19.40;78.30
997;DHT22;487;50.126;8.698;2023-08-31T12:18:07;19.50;75.20
997;DHT22;487;50.126;8.698;2023-08-31T12:20:43;19.70;77.20
997;DHT22;487;50.126;8.698;2023-08-31T12:23:11;19.70;88.10
997;DHT22;487;50.126;8.698;2023-08-31T12:25:46;19.90;73.80
997;DHT22;487;50.126;8.698;2023-08-31T12:28:17;19.90;83.90
997;DHT22;487;50.126;8.698;2023-08-31T12:30:47;19.90;83.30
997;DHT22;487;50.126;8.698;2023-08-31T12:33:16;19.90;55.40
997;DHT22;487;50.126;8.698;2023-08-31T12:35:45;19.70;52.20
997;DHT22;487;50.126;8.698;2023-08-31T12:38:13;19.70;64.10
997;DHT22;487;50.126;8.698;2023-08-31T12:40:41;19.70;62.10
997;DHT22;487;50.126;8.698;2023-08-31T12:43:09;19.70;53.80
997;DHT22;487;50.126;8.698;2023-08-31T12:45:38;20.10;51.10
997;DHT22;487;50.126;8.698;2023-08-31T12:48:06;20.10;62.30
997;DHT22;487;50.126;8.698;2023-08-31T12:50:35;20.40;62.30
997;DHT22;487;50.126;8.698;2023-08-31T12:53:03;20.50;50.60
997;DHT22;487;50.126;8.698;2023-08-31T12:55:31;20.70;48.70
997;DHT22;487;50.126;8.698;2023-08-31T12:57:59;20.60;50.90
997;DHT22;487;50.126;8.698;2023-08-31T13:00:27;20.40;43.40
997;DHT22;487;50.126;8.698;2023-08-31T13:02:56;20.10;31.10
997;DHT22;487;50.126;8.698;2023-08-31T13:07:54;20.00;28.20
997;DHT22;487;50.126;8.698;2023-08-31T13:10:22;20.10;39.60
997;DHT22;487;50.126;8.698;2023-08-31T13:15:18;20.20;40.90
997;DHT22;487;50.126;8.698;2023-08-31T13:17:46;20.20;40.40
997;DHT22;487;50.126;8.698;2023-08-31T13:20:16;20.30;40.60
997;DHT22;487;50.126;8.698;2023-08-31T13:22:44;20.30;40.90
997;DHT22;487;50.126;8.698;2023-08-31T13:25:12;20.40;39.00
997;DHT22;487;50.126;8.698;2023-08-31T13:27:40;20.40;46.50
997;DHT22;487;50.126;8.698;2023-08-31T13:30:09;20.30;43.70
997;DHT22;487;50.126;8.698;2023-08-31T13:32:38;20.30;29.50
997;DHT22;487;50.126;8.698;2023-08-31T13:35:07;20.30;25.80
997;DHT22;487;50.126;8.698;2023-08-31T13:37:36;20.30;37.30
997;DHT22;487;50.126;8.698;2023-08-31T13:40:06;20.40;36.10
997;DHT22;487;50.126;8.698;2023-08-31T13:42:36;20.20;1.00
997;DHT22;487;50.126;8.698;2023-08-31T13:45:07;20.30;1.00
997;DHT22;487;50.126;8.698;2023-08-31T13:47:35;20.30;8.20
997;DHT22;487;50.126;8.698;2023-08-31T13:50:03;20.20;5.70
997;DHT22;487;50.126;8.698;2023-08-31T13:52:31;20.20;7.60
997;DHT22;487;50.126;8.698;2023-08-31T13:55:01;20.70;1.00
997;DHT22;487;50.126;8.698;2023-08-31T13:57:30;20.60;3.20
997;DHT22;487;50.126;8.698;2023-08-31T13:59:58;20.70;1.00
997;DHT22;487;50.126;8.698;2023-08-31T14:02:26;20.70;1.00
997;DHT22;487;50.126;8.698;2023-08-31T14:04:54;20.60;1.00
997;DHT22;487;50.126;8.698;2023-08-31T14:07:22;20.70;1.00
997;DHT22;487;50.126;8.698;2023-08-31T14:09:50;20.70;1.00
997;DHT22;487;50.126;8.698;2023-08-31T14:12:19;20.70;1.00
997;DHT22;487;50.126;8.698;2023-08-31T14:14:48;20.70;1.00
997;DHT22;487;50.126;8.698;2023-08-31T14:17:16;20.70;1.00
997;DHT22;487;50.126;8.698;2023-08-31T14:19:43;20.70;1.00
997;DHT22;487;50.126;8.698;2023-08-31T14:22:11;20.80;1.00
997;DHT22;487;50.126;8.698;2023-08-31T14:24:39;20.90;1.00
997;DHT22;487;50.126;8.698;2023-08-31T14:27:07;20.90;1.00
997;DHT22;487;50.126;8.698;2023-08-31T14:29:37;21.00;1.00
997;DHT22;487;50.126;8.698;2023-08-31T14:32:05;20.90;1.00
997;DHT22;487;50.126;8.698;2023-08-31T14:34:33;21.00;1.00
997;DHT22;487;50.126;8.698;2023-08-31T14:37:01;20.90;1.00
997;DHT22;487;50.126;8.698;2023-08-31T14:39:30;20.90;1.00
997;DHT22;487;50.126;8.698;2023-08-31T14:41:58;21.00;1.00
997;DHT22;487;50.126;8.698;2023-08-31T14:44:26;20.90;1.00
997;DHT22;487;50.126;8.698;2023-08-31T14:46:55;20.90;1.00
997;DHT22;487;50.126;8.698;2023-08-31T14:49:23;20.80;1.00
997;DHT22;487;50.126;8.698;2023-08-31T14:51:52;20.60;1.00
997;DHT22;487;50.126;8.698;2023-08-31T14:54:22;20.60;1.00
997;DHT22;487;50.126;8.698;2023-08-31T14:56:50;20.60;1.00
997;DHT22;487;50.126;8.698;2023-08-31T14:59:18;20.70;1.00
997;DHT22;487;50.126;8.698;2023-08-31T15:01:46;20.80;1.00
997;DHT22;487;50.126;8.698;2023-08-31T15:04:15;20.80;1.00
997;DHT22;487;50.126;8.698;2023-08-31T15:06:43;20.90;1.00
997;DHT22;487;50.126;8.698;2023-08-31T15:09:11;20.70;1.00
997;DHT22;487;50.126;8.698;2023-08-31T15:11:39;20.70;1.00
997;DHT22;487;50.126;8.698;2023-08-31T15:16:35;18.90;1.00
997;DHT22;487;50.126;8.698;2023-08-31T15:19:04;20.90;1.00
997;DHT22;487;50.126;8.698;2023-08-31T15:21:34;20.90;1.00
997;DHT22;487;50.126;8.698;2023-08-31T15:24:07;20.80;1.00
997;DHT22;487;50.126;8.698;2023-08-31T15:29:04;20.90;1.00
997;DHT22;487;50.126;8.698;2023-08-31T15:31:32;20.60;1.00
997;DHT22;487;50.126;8.698;2023-08-31T15:36:33;20.50;1.00
997;DHT22;487;50.126;8.698;2023-08-31T15:41:33;20.60;1.00
997;DHT22;487;50.126;8.698;2023-08-31T15:44:03;20.60;1.00
997;DHT22;487;50.126;8.698;2023-08-31T15:46:32;20.60;1.00
997;DHT22;487;50.126;8.698;2023-08-31T15:49:00;20.60;1.00
997;DHT22;487;50.126;8.698;2023-08-31T15:51:28;20.90;1.00
997;DHT22;487;50.126;8.698;2023-08-31T15:53:59;21.20;1.00
997;DHT22;487;50.126;8.698;2023-08-31T15:59:01;21.30;1.00
997;DHT22;487;50.126;8.698;2023-08-31T16:01:30;21.40;1.00
997;DHT22;487;50.126;8.698;2023-08-31T16:06:27;21.40;1.00
997;DHT22;487;50.126;8.698;2023-08-31T16:08:57;21.60;1.00
997;DHT22;487;50.126;8.698;2023-08-31T16:11:25;21.40;1.00
997;DHT22;487;50.126;8.698;2023-08-31T16:13:57;21.20;1.00
997;DHT22;487;50.126;8.698;2023-08-31T16:16:25;21.20;1.00
997;DHT22;487;50.126;8.698;2023-08-31T16:18:53;21.20;1.00
997;DHT22;487;50.126;8.698;2023-08-31T16:23:52;20.60;1.00
997;DHT22;487;50.126;8.698;2023-08-31T16:26:23;20.60;1.00
997;DHT22;487;50.126;8.698;2023-08-31T16:28:53;20.50;1.00
997;DHT22;487;50.126;8.698;2023-08-31T16:31:22;20.40;1.00
997;DHT22;487;50.126;8.698;2023-08-31T16:33:53;20.40;1.00
997;DHT22;487;50.126;8.698;2023-08-31T16:36:27;20.40;1.00
997;DHT22;487;50.126;8.698;2023-08-31T16:38:55;20.30;1.00
997;DHT22;487;50.126;8.698;2023-08-31T16:41:25;20.40;1.00
997;DHT22;487;50.126;8.698;2023-08-31T16:43:54;20.30;1.00
997;DHT22;487;50.126;8.698;2023-08-31T16:46:29;20.40;1.00
997;DHT22;487;50.126;8.698;2023-08-31T16:49:00;20.20;1.00
997;DHT22;487;50.126;8.698;2023-08-31T16:51:29;20.20;1.00
997;DHT22;487;50.126;8.698;2023-08-31T16:56:32;20.00;1.00
997;DHT22;487;50.126;8.698;2023-08-31T16:59:00;20.00;1.00
997;DHT22;487;50.126;8.698;2023-08-31T17:01:30;19.90;1.00
997;DHT22;487;50.126;8.698;2023-08-31T17:06:33;19.80;1.00
997;DHT22;487;50.126;8.698;2023-08-31T17:09:01;19.80;1.00
997;DHT22;487;50.126;8.698;2023-08-31T17:11:36;19.80;1.00
997;DHT22;487;50.126;8.698;2023-08-31T17:14:05;19.70;1.00
997;DHT22;487;50.126;8.698;2023-08-31T17:19:07;19.50;1.00
997;DHT22;487;50.126;8.698;2023-08-31T17:21:36;19.50;1.00
997;DHT22;487;50.126;8.698;2023-08-31T17:24:04;19.50;1.00
997;DHT22;487;50.126;8.698;2023-08-31T17:26:32;19.50;1.00
997;DHT22;487;50.126;8.698;2023-08-31T17:31:46;19.50;1.00
997;DHT22;487;50.126;8.698;2023-08-31T17:34:15;19.70;1.00
997;DHT22;487;50.126;8.698;2023-08-31T17:36:45;19.70;1.00
997;DHT22;487;50.126;8.698;2023-08-31T17:39:19;19.80;1.00
997;DHT22;487;50.126;8.698;2023-08-31T17:41:47;19.80;1.40
997;DHT22;487;50.126;8.698;2023-08-31T17:46:45;19.60;1.00
997;DHT22;487;50.126;8.698;2023-08-31T17:49:14;19.60;1.00
997;DHT22;487;50.126;8.698;2023-08-31T17:51:45;19.50;1.00
997;DHT22;487;50.126;8.698;2023-08-31T17:54:15;19.50;1.00
997;DHT22;487;50.126;8.698;2023-08-31T17:56:43;19.50;1.00
997;DHT22;487;50.126;8.698;2023-08-31T17:59:11;19.50;1.00
997;DHT22;487;50.126;8.698;2023-08-31T18:01:45;19.50;1.00
997;DHT22;487;50.126;8.698;2023-08-31T18:04:14;19.40;1.00
997;DHT22;487;50.126;8.698;2023-08-31T18:09:12;19.40;1.00
997;DHT22;487;50.126;8.698;2023-08-31T18:11:41;19.40;1.00
997;DHT22;487;50.126;8.698;2023-08-31T18:14:16;19.40;1.00
997;DHT22;487;50.126;8.698;2023-08-31T18:19:18;19.40;1.00
997;DHT22;487;50.126;8.698;2023-08-31T18:21:49;19.30;1.00
997;DHT22;487;50.126;8.698;2023-08-31T18:24:17;19.40;1.00
997;DHT22;487;50.126;8.698;2023-08-31T18:29:18;19.50;1.00
997;DHT22;487;50.126;8.698;2023-08-31T18:31:51;19.50;1.00
997;DHT22;487;50.126;8.698;2023-08-31T18:34:23;19.30;1.50
997;DHT22;487;50.126;8.698;2023-08-31T18:36:56;19.30;1.60
997;DHT22;487;50.126;8.698;2023-08-31T18:39:24;19.30;2.50
997;DHT22;487;50.126;8.698;2023-08-31T18:41:57;19.20;3.40
997;DHT22;487;50.126;8.698;2023-08-31T18:44:30;19.20;6.10
997;DHT22;487;50.126;8.698;2023-08-31T18:47:02;19.00;4.30
997;DHT22;487;50.126;8.698;2023-08-31T18:49:30;19.00;5.60
997;DHT22;487;50.126;8.698;2023-08-31T18:52:00;18.90;6.20
997;DHT22;487;50.126;8.698;2023-08-31T18:54:33;18.90;6.80
997;DHT22;487;50.126;8.698;2023-08-31T18:57:05;18.90;7.50
997;DHT22;487;50.126;8.698;2023-08-31T18:59:33;19.00;8.10
997;DHT22;487;50.126;8.698;2023-08-31T19:02:06;18.90;9.40
997;DHT22;487;50.126;8.698;2023-08-31T19:04:37;18.90;9.50
997;DHT22;487;50.126;8.698;2023-08-31T19:07:05;18.90;18.10
997;DHT22;487;50.126;8.698;2023-08-31T19:09:31;18.80;11.90
997;DHT22;487;50.126;8.698;2023-08-31T19:14:29;18.60;15.30
997;DHT22;487;50.126;8.698;2023-08-31T19:16:59;18.50;17.40
997;DHT22;487;50.126;8.698;2023-08-31T19:21:58;18.30;20.40
997;DHT22;487;50.126;8.698;2023-08-31T19:24:31;18.30;23.10
997;DHT22;487;50.126;8.698;2023-08-31T19:27:00;18.20;25.50
997;DHT22;487;50.126;8.698;2023-08-31T19:29:28;18.20;27.50
997;DHT22;487;50.126;8.698;2023-08-31T19:31:55;18.10;30.60
997;DHT22;487;50.126;8.698;2023-08-31T19:34:25;17.90;33.00
997;DHT22;487;50.126;8.698;2023-08-31T19:36:56;17.80;36.80
997;DHT22;487;50.126;8.698;2023-08-31T19:39:24;17.80;48.50
997;DHT22;487;50.126;8.698;2023-08-31T19:41:52;17.70;43.20
997;DHT22;487;50.126;8.698;2023-08-31T19:44:22;17.60;47.60
997;DHT22;487;50.126;8.698;2023-08-31T19:46:52;17.60;48.70
997;DHT22;487;50.126;8.698;2023-08-31T19:49:24;17.60;53.20
997;DHT22;487;50.126;8.698;2023-08-31T19:51:53;17.60;57.30
997;DHT22;487;50.126;8.698;2023-08-31T19:54:22;17.60;59.60
997;DHT22;487;50.126;8.698;2023-08-31T19:56:50;17.70;62.00
997;DHT22;487;50.126;8.698;2023-08-31T19:59:18;17.70;64.70
997;DHT22;487;50.126;8.698;2023-08-31T20:01:46;17.60;68.20
997;DHT22;487;50.126;8.698;2023-08-31T20:04:14;17.50;74.20
997;DHT22;487;50.126;8.698;2023-08-31T20:09:10;17.50;76.50
997;DHT22;487;50.126;8.698;2023-08-31T20:14:11;17.40;84.10
997;DHT22;487;50.126;8.698;2023-08-31T20:16:39;17.00;84.10
997;DHT22;487;50.126;8.698;2023-08-31T20:19:08;17.20;92.40
997;DHT22;487;50.126;8.698;2023-08-31T20:21:38;17.10;94.70
997;DHT22;487;50.126;8.698;2023-08-31T20:26:35;17.10;99.30
997;DHT22;487;50.126;8.698;2023-08-31T20:29:05;17.20;99.90
997;DHT22;487;50.126;8.698;2023-08-31T20:31:33;17.20;99.90
997;DHT22;487;50.126;8.698;2023-08-31T20:34:02;17.30;99.90
997;DHT22;487;50.126;8.698;2023-08-31T20:36:30;17.30;99.90
997;DHT22;487;50.126;8.698;2023-08-31T20:38:59;17.30;99.90
997;DHT22;487;50.126;8.698;2023-08-31T20:41:39;17.20;99.90
997;DHT22;487;50.126;8.698;2023-08-31T20:44:11;17.20;99.90
997;DHT22;487;50.126;8.698;2023-08-31T20:46:42;17.20;99.90
997;DHT22;487;50.126;8.698;2023-08-31T20:49:11;17.20;99.90
997;DHT22;487;50.126;8.698;2023-08-31T20:51:41;17.20;99.90
997;DHT22;487;50.126;8.698;2023-08-31T20:54:10;17.30;99.90
997;DHT22;487;50.126;8.698;2023-08-31T20:56:39;17.20;99.90
997;DHT22;487;50.126;8.698;2023-08-31T20:59:11;17.20;99.90
997;DHT22;487;50.126;8.698;2023-08-31T21:04:07;17.50;99.90
997;DHT22;487;50.126;8.698;2023-08-31T21:06:35;17.50;99.90
997;DHT22;487;50.126;8.698;2023-08-31T21:11:39;17.60;99.90
997;DHT22;487;50.126;8.698;2023-08-31T21:21:39;17.80;99.90
997;DHT22;487;50.126;8.698;2023-08-31T21:24:09;17.80;99.90
997;DHT22;487;50.126;8.698;2023-08-31T21:26:37;17.70;99.90
997;DHT22;487;50.126;8.698;2023-08-31T21:34:07;17.70;99.90
997;DHT22;487;50.126;8.698;2023-08-31T21:36:35;17.60;99.90
997;DHT22;487;50.126;8.698;2023-08-31T21:39:03;17.50;99.90
997;DHT22;487;50.126;8.698;2023-08-31T21:41:31;17.40;99.90
997;DHT22;487;50.126;8.698;2023-08-31T21:43:59;17.50;99.90
997;DHT22;487;50.126;8.698;2023-08-31T21:46:27;17.40;99.90
997;DHT22;487;50.126;8.698;2023-08-31T21:48:55;17.40;99.90
997;DHT22;487;50.126;8.698;2023-08-31T21:51:24;17.40;99.90
997;DHT22;487;50.126;8.698;2023-08-31T21:53:53;17.30;99.90
997;DHT22;487;50.126;8.698;2023-08-31T21:56:21;17.20;99.90
997;DHT22;487;50.126;8.698;2023-08-31T21:58:49;17.20;99.90
997;DHT22;487;50.126;8.698;2023-08-31T22:01:17;17.00;99.90
997;DHT22;487;50.126;8.698;2023-08-31T22:03:47;17.00;99.90
997;DHT22;487;50.126;8.698;2023-08-31T22:08:45;17.10;99.90
997;DHT22;487;50.126;8.698;2023-08-31T22:11:13;17.20;99.90
997;DHT22;487;50.126;8.698;2023-08-31T22:13:42;17.20;99.90
997;DHT22;487;50.126;8.698;2023-08-31T22:16:10;17.20;99.90
997;DHT22;487;50.126;8.698;2023-08-31T22:18:55;17.20;99.90
997;DHT22;487;50.126;8.698;2023-08-31T22:21:25;17.20;99.90
997;DHT22;487;50.126;8.698;2023-08-31T22:26:24;17.40;99.90
997;DHT22;487;50.126;8.698;2023-08-31T22:28:52;17.40;99.90
997;DHT22;487;50.126;8.698;2023-08-31T22:31:20;17.40;99.90
997;DHT22;487;50.126;8.698;2023-08-31T22:33:48;17.20;99.90
997;DHT22;487;50.126;8.698;2023-08-31T22:36:16;17.20;99.90